createdAt,value
2023-05-14T00:02:21.319Z,76.20
2023-05-14T00:07:23.310Z,37.13
2023-05-14T00:12:26.401Z,56.97
2023-05-14T00:17:28.262Z,1252.53
2023-05-14T00:22:30.021Z,411.67
2023-05-14T00:27:31.867Z,248.07
2023-05-14T00:32:33.901Z,302.45
2023-05-14T00:37:36.474Z,510.10
2023-05-14T00:42:38.426Z,418.17
2023-05-14T00:47:41.026Z,200.88
2023-05-14T00:52:43.157Z,74.53
2023-05-14T00:57:45.336Z,170.30
2023-05-14T01:02:47.309Z,305.48
2023-05-14T01:08:05.366Z,193.70
2023-05-14T01:13:27.500Z,604.45
2023-05-14T01:18:31.492Z,175.50
2023-05-14T01:23:33.583Z,642.63
2023-05-14T01:28:37.625Z,731.25
2023-05-14T01:33:42.409Z,216.90
2023-05-14T01:38:47.275Z,247.75
2023-05-14T01:43:49.458Z,303.48
2023-05-14T01:48:51.302Z,472.55
2023-05-14T01:53:53.420Z,421.50
2023-05-14T01:58:57.628Z,38.65
2023-05-14T02:03:59.811Z,216.88
2023-05-14T02:09:02.532Z,156.60
2023-05-14T02:14:04.393Z,189.32
2023-05-14T02:19:06.461Z,266.15
2023-05-14T02:24:08.335Z,555.78
2023-05-14T02:29:10.508Z,710.42
2023-05-14T02:34:12.288Z,230.57
2023-05-14T02:39:14.069Z,413.15
2023-05-14T02:44:15.883Z,225.40
2023-05-14T02:49:17.700Z,204.95
2023-05-14T02:54:19.428Z,197.88
2023-05-14T02:59:21.932Z,297.23
2023-05-14T03:04:24.016Z,286.27
2023-05-14T03:09:25.790Z,284.25
2023-05-14T03:14:27.531Z,138.68
2023-05-14T03:19:29.314Z,252.73
2023-05-14T03:24:31.595Z,138.38
2023-05-14T03:29:33.363Z,189.43
2023-05-14T03:34:35.322Z,188.57
2023-05-14T03:39:37.225Z,260.63
2023-05-14T03:44:39.820Z,358.77
2023-05-14T03:49:41.648Z,291.50
2023-05-14T03:54:45.907Z,271.35
2023-05-14T03:59:47.754Z,500.70
2023-05-14T04:04:49.560Z,260.02
2023-05-14T04:09:56.970Z,196.70
2023-05-14T04:14:58.930Z,194.13
2023-05-14T04:20:00.899Z,259.27
2023-05-14T04:25:02.655Z,258.60
2023-05-14T04:30:04.847Z,280.27
2023-05-14T04:35:07.346Z,268.23
2023-05-14T04:40:11.398Z,231.48
2023-05-14T04:45:13.652Z,138.10
2023-05-14T04:50:15.855Z,62.33
2023-05-14T04:55:17.629Z,190.60
2023-05-14T05:00:22.021Z,141.10
2023-05-14T05:05:24.535Z,464.42
2023-05-14T05:10:26.425Z,156.13
2023-05-14T05:15:28.487Z,373.30
2023-05-14T05:20:30.299Z,216.52
2023-05-14T05:25:32.115Z,191.48
2023-05-14T05:30:34.176Z,305.85
2023-05-14T05:35:35.939Z,205.55
2023-05-14T05:40:37.790Z,364.02
2023-05-14T05:45:39.628Z,81.38
2023-05-14T05:50:41.389Z,185.27
2023-05-14T05:55:43.162Z,188.40
2023-05-14T06:00:45.697Z,101.25
2023-05-14T06:05:47.580Z,160.30
2023-05-14T06:10:49.639Z,255.65
2023-05-14T06:15:51.360Z,82.70
2023-05-14T06:20:53.104Z,90.78
2023-05-14T06:25:54.902Z,61.97
2023-05-14T06:30:56.745Z,37.22
2023-05-14T06:35:59.814Z,29.77
2023-05-14T06:41:01.601Z,21.20
2023-05-14T06:46:03.595Z,13.88
2023-05-14T06:51:05.411Z,15.73
2023-05-14T06:56:07.951Z,19.00
2023-05-14T07:01:09.793Z,14.48
2023-05-14T07:06:13.531Z,14.05
2023-05-14T07:11:15.565Z,11.75
2023-05-14T07:16:17.350Z,10.57
2023-05-14T07:21:19.366Z,11.18
2023-05-14T07:26:21.543Z,9.73
2023-05-14T07:31:23.524Z,9.68
2023-05-14T07:36:25.366Z,10.20
2023-05-14T07:41:27.142Z,10.30
2023-05-14T07:46:28.954Z,9.25
2023-05-14T07:51:33.451Z,9.00
2023-05-14T07:56:35.201Z,8.85
2023-05-14T08:01:39.156Z,7.57
2023-05-14T08:06:41.336Z,7.95
2023-05-14T08:11:44.124Z,7.00
2023-05-14T08:16:45.983Z,7.38
2023-05-14T08:21:48.050Z,11.63
2023-05-14T08:26:49.952Z,7.65
2023-05-14T08:31:51.780Z,6.25
2023-05-14T08:36:53.701Z,13.82
2023-05-14T08:41:59.488Z,7.03
2023-05-14T08:47:02.006Z,6.90
2023-05-14T08:52:04.275Z,6.93
2023-05-14T08:57:09.388Z,9.35
2023-05-14T09:02:14.766Z,6.57
2023-05-14T09:07:16.880Z,6.55
2023-05-14T09:12:18.995Z,5.75
2023-05-14T09:17:21.176Z,6.38
2023-05-14T09:22:22.983Z,5.22
2023-05-14T09:27:25.986Z,5.00
2023-05-14T09:32:27.810Z,4.65
2023-05-14T09:37:29.987Z,4.63
2023-05-14T09:42:31.726Z,4.35
2023-05-14T09:47:33.680Z,6.53
2023-05-14T09:52:35.665Z,4.45
2023-05-14T09:57:38.735Z,5.88
2023-05-14T10:02:43.061Z,5.57
2023-05-14T10:07:48.515Z,6.80
2023-05-14T10:13:04.751Z,7.68
2023-05-14T10:18:19.017Z,4.72
2023-05-14T10:23:20.863Z,3.15
2023-05-14T10:28:22.805Z,2.65
2023-05-14T10:33:24.589Z,2.55
2023-05-14T10:38:32.144Z,3.30
2023-05-14T10:43:38.538Z,4.20
2023-05-14T10:48:43.033Z,3.97
2023-05-14T10:53:44.918Z,3.33
2023-05-14T10:58:46.674Z,3.97
2023-05-14T11:03:53.458Z,4.75
2023-05-14T11:08:56.267Z,3.22
2023-05-14T11:13:58.196Z,3.90
2023-05-14T11:19:06.447Z,2.88
2023-05-14T11:24:08.320Z,3.78
2023-05-14T11:29:10.691Z,3.08
2023-05-14T11:34:12.422Z,3.92
2023-05-14T11:39:19.932Z,3.10
2023-05-14T11:44:22.585Z,4.80
2023-05-14T11:49:29.453Z,5.60
2023-05-14T11:54:32.357Z,2.88
2023-05-14T11:59:34.473Z,3.80
2023-05-14T12:04:36.721Z,2.83
2023-05-14T12:09:48.986Z,4.13
2023-05-14T12:14:51.182Z,3.22
2023-05-14T12:19:54.235Z,3.42
2023-05-14T12:24:58.237Z,5.72
2023-05-14T12:30:20.013Z,2.90
2023-05-14T12:35:23.598Z,2.20
2023-05-14T12:40:26.697Z,2.45
2023-05-14T12:45:29.283Z,2.58
2023-05-14T12:50:31.564Z,5.05
2023-05-14T12:55:34.480Z,2.85
2023-05-14T13:00:36.502Z,4.72
2023-05-14T13:05:38.289Z,3.28
2023-05-14T13:10:40.248Z,2.65
2023-05-14T13:15:42.485Z,2.33
2023-05-14T13:20:46.677Z,2.50
2023-05-14T13:25:51.695Z,3.63
2023-05-14T13:31:22.764Z,3.50
2023-05-14T13:36:24.748Z,4.45
2023-05-14T13:41:26.636Z,3.38
2023-05-14T13:46:28.510Z,3.28
2023-05-14T13:51:31.484Z,4.55
2023-05-14T13:56:33.290Z,2.70
2023-05-14T14:01:35.122Z,4.45
2023-05-14T14:06:37.076Z,3.78
2023-05-14T14:11:39.227Z,2.85
2023-05-14T14:16:41.103Z,2.50
2023-05-14T14:21:43.066Z,4.75
2023-05-14T14:26:44.924Z,3.28
2023-05-14T14:31:46.696Z,3.60
2023-05-14T14:36:48.550Z,3.20
2023-05-14T14:41:50.474Z,2.63
2023-05-14T14:46:52.222Z,4.22
2023-05-14T14:51:54.659Z,2.85
2023-05-14T14:56:56.600Z,5.45
2023-05-14T15:01:58.634Z,4.82
2023-05-14T15:07:02.108Z,3.83
2023-05-14T15:12:04.095Z,2.30
2023-05-14T15:17:05.950Z,4.70
2023-05-14T15:22:07.783Z,2.58
2023-05-14T15:27:09.594Z,2.85
2023-05-14T15:32:11.596Z,3.67
2023-05-14T15:37:13.321Z,8.38
2023-05-14T15:42:15.100Z,6.20
2023-05-14T15:47:16.897Z,4.53
2023-05-14T15:52:18.673Z,4.47
2023-05-14T15:57:20.390Z,3.75
2023-05-14T16:02:22.344Z,4.80
2023-05-14T16:07:24.242Z,7.38
2023-05-14T16:12:26.377Z,4.85
2023-05-14T16:17:28.606Z,4.57
2023-05-14T16:22:32.667Z,6.38
2023-05-14T16:27:34.724Z,6.40
2023-05-14T16:32:36.599Z,5.13
2023-05-14T16:37:38.411Z,6.22
2023-05-14T16:42:40.675Z,3.58
2023-05-14T16:47:42.575Z,15.88
2023-05-14T16:52:44.455Z,17.55
2023-05-14T16:57:46.242Z,10.85
2023-05-14T17:02:49.847Z,6.50
2023-05-14T17:07:51.728Z,7.72
2023-05-14T17:12:53.565Z,12.30
2023-05-14T17:17:56.067Z,5.75
2023-05-14T17:22:58.521Z,4.93
2023-05-14T17:28:00.578Z,4.60
2023-05-14T17:33:02.821Z,6.47
2023-05-14T17:38:04.818Z,4.43
2023-05-14T17:43:08.653Z,4.38
2023-05-14T17:48:10.571Z,5.63
2023-05-14T17:53:12.406Z,8.07
2023-05-14T17:58:15.546Z,6.68
2023-05-14T18:03:17.562Z,4.60
2023-05-14T18:08:19.570Z,5.47
2023-05-14T18:13:21.364Z,6.45
2023-05-14T18:18:24.088Z,5.45
2023-05-14T18:23:25.964Z,4.43
2023-05-14T18:28:27.992Z,3.97
2023-05-14T18:33:31.224Z,5.28
2023-05-14T18:38:32.967Z,4.47
2023-05-14T18:43:34.764Z,4.32
2023-05-14T18:48:38.128Z,4.53
2023-05-14T18:53:40.128Z,3.97
2023-05-14T18:58:41.872Z,8.52
2023-05-14T19:03:43.924Z,8.13
2023-05-14T19:08:46.542Z,2.97
2023-05-14T19:13:49.622Z,3.72
2023-05-14T19:18:51.541Z,4.30
2023-05-14T19:23:53.383Z,5.20
2023-05-14T19:28:58.589Z,4.53
2023-05-14T19:34:00.431Z,3.30
2023-05-14T19:39:02.192Z,3.60
2023-05-14T19:44:04.016Z,3.47
2023-05-14T19:49:06.151Z,7.30
2023-05-14T19:54:08.042Z,5.03
2023-05-14T19:59:09.836Z,3.53
2023-05-14T20:04:14.123Z,3.47
2023-05-14T20:09:15.889Z,4.25
2023-05-14T20:14:17.728Z,4.00
2023-05-14T20:19:21.402Z,4.45
2023-05-14T20:24:23.273Z,4.38
2023-05-14T20:29:25.071Z,4.68
2023-05-14T20:34:26.866Z,6.43
2023-05-14T20:39:28.603Z,6.03
2023-05-14T20:44:30.410Z,5.30
2023-05-14T20:49:32.132Z,5.85
2023-05-14T20:54:33.854Z,5.22
2023-05-14T20:59:35.707Z,6.43
2023-05-14T21:04:38.295Z,5.55
2023-05-14T21:09:40.739Z,5.13
2023-05-14T21:14:42.823Z,5.75
2023-05-14T21:19:44.610Z,3.95
2023-05-14T21:24:46.418Z,4.10
2023-05-14T21:29:48.196Z,5.40
2023-05-14T21:34:49.973Z,6.10
2023-05-14T21:39:51.945Z,4.65
2023-05-14T21:44:53.765Z,6.72
2023-05-14T21:49:55.500Z,4.32
2023-05-14T21:54:57.230Z,8.80
2023-05-14T21:59:58.939Z,6.18
2023-05-14T22:05:00.729Z,5.35
2023-05-14T22:10:02.455Z,5.60
2023-05-14T22:15:05.800Z,7.57
2023-05-14T22:20:09.714Z,5.28
2023-05-14T22:25:11.448Z,6.57
2023-05-14T22:30:13.378Z,6.38
2023-05-14T22:35:15.485Z,4.90
2023-05-14T22:40:17.274Z,4.93
2023-05-14T22:45:19.067Z,5.55
2023-05-14T22:50:20.855Z,8.55
2023-05-14T22:55:22.955Z,6.97
2023-05-14T23:00:25.331Z,6.28
2023-05-14T23:05:27.286Z,9.07
2023-05-14T23:10:29.642Z,9.10
2023-05-14T23:15:31.713Z,7.63
2023-05-14T23:20:33.507Z,4.35
2023-05-14T23:25:35.279Z,13.48
2023-05-14T23:30:37.001Z,6.50
2023-05-14T23:35:39.748Z,5.70
2023-05-14T23:40:41.560Z,7.55
2023-05-14T23:45:43.369Z,6.82
2023-05-14T23:50:45.246Z,5.10
2023-05-14T23:55:47.330Z,8.75
